Airfield :
LOGIN :

Register | Disclaimer

   EN    FR    IT 

 










Legend :    VFR   Marginal VFR   IFR   Intensive IFR   Very Intensive IFR
Visi :
Ceiling :
>= 8 km
>= 3000ft
5 to 8 km
1000 to 3000 ft
1500m to 5 km
500 to 1000 ft
800 to 1500m
200 to 500 ft
< 800m
< 200 ft
Symbols :   Thunderstorms  Fog  Heavy snow  Heavy precipitations  Wind > 20 kt
SIGMETs :     Misc.  Thunderstorms  Icing  Turbulence  Mountain Waves  Volcanic Ashes







- Airport Elevation : 3 ft
- IATA code : DHR


EHKD - Den Helder De Kooy

CURRENT METAR :
  • 240132Z AUTO 23017KT 7000 BR FEW003 SCT005 OVC160 09/08 Q1013 YLO

EXPIRED METARs :
  • 240125Z AUTO 23019KT 200V260 7000 BR OVC180 09/08 Q1013 WHT
  • 240055Z AUTO 23018KT 6000 BR SCT004 OVC005 09/08 Q1013 YLO
  • 240025Z AUTO 23018KT 190V250 7000 BR OVC004 09/09 Q1013 YLO
  • 232355Z AUTO 23019KT 7000 BR BKN005 OVC006 09/09 Q1013 YLO
  • 232325Z AUTO 22021KT 6000 BR BKN004 OVC005 09/09 Q1013 YLO
  • 232317Z AUTO 22021KT 5000 BR BKN003 BKN004 OVC006 09/09 Q1012 YLO
  • 232255Z AUTO 22021KT 180V250 2900 R21/2800U BR OVC002 09/09 Q1012 AMB

TAF TAF EHKD
Valid from the 23 at 18:00 until the 24 at 06:00 UTC


231720Z 2318/2406 21022G35KT 3000 -DZ BKN003
TEMPO 2318/2406 1200 +DZ BR BKN001 OVC002
BECMG 2321/2323 23019KT
No reported NOTAMs for that airfield.



MET'MAP, your aeronautical weather chart ! - Copyright ORBIFLY December 2007 - Disclaimer

ORBIFLY MET'MAP TEAM :

Programming & Development : Alexandra Zaïnal
Concept & Development : Baudouin d'Aumeries
Co-Development & Prog : Marc-Olivier Méhu
Technical & hardware support : Manuel Goepfert

Contact : metmap@orbifly.com




SOURCES & CREDITS :

   NOAA